Hauptseite
METAR-TAF:

METAR-TAF

Flughäfen :

NATO-Flugplatz Geilenkirchen

Geilenkirchen, Deutschland

Breite: 50-57-39N, Länge: 006-2-33E, Höhe: 90 m

Beobachtung

Neuester Wetterbericht von vor 6 Stunden und 7 Minuten, um 16:50 UTC
Wind 10 kt aus Ost
Temperatur 7°C
Luftfeuchtigkeit 76%
Luftdruck 1027 hPa
Sichtweite 10 km oder mehr
keine Wolken unter 1500 m und keine Kumulonimbus oder Gewitterwolken

METAR: ETNG 161650Z 09010KT CAVOK 07/03 Q1027 NOSIG

Zeit: 23:57 (22:57 UTC)

Prognose

Neuester Wetterbericht von vor 8 Stunden und 57 Minuten, um 14:00 UTC
Gültige Prognose vom 16 um 15 UTC bis 17 um 06 UTC
Wind 10 kt aus Ost, Böen bis zu 17 kt
Sichtweite 10 km oder mehr
keine Wolken unter 1500 m und keine Kumulonimbus oder Gewitterwolken

TAF: ETNG 161400Z 1615/1706 10010G17KT CAVOK

Wetterbeobachtungen und Prognosen von mehr als 4000 Flughäfen (METAR und TAF Bericht).

Die verfügbaren Stationen werden durch gelbe und rote Markierungen auf der Karte dargestellt.

Führen Sie die Maus auf sie, um den Namen der Station zu sehen.

Darauf klicken, um die Beobachtung von Wetterbeobachtungen und Prognosen zu sehen.

Um die Karte zu ändern : klicken Sie auf den grünen Tasten mit einem schwarzen Kreuz Zum Vergrößern, auf den grünen Button mit einem Gedankenstrich zu verkleinern, oder auf die grünen Pfeile für benachbarte Karten.


METAR-TAF: